Time;durP1;ratioP1;P1;durP2;ratioP2;P2;SDS_P1;SDS_P2;PMS_P1;PMS_P2;Temp;Humidity;BMP_temperature;BMP_pressure;BME280_temperature;BME280_humidity;BME280_pressure;Samples;Min_cycle;Max_cycle;Signal;HPM_P1;HPM_P2
2023/12/18 00:02:46;;;;;;;14.00;7.20;;;;;;;8.12;63.16;100368.79;232372;200;138060;-61
2023/12/18 00:07:50;;;;;;;14.30;7.70;;;;;;;8.15;63.08;100371.34;232359;203;136420;-62
2023/12/18 00:12:53;;;;;;;14.10;7.50;;;;;;;8.17;63.02;100370.24;232195;200;151530;-61
2023/12/18 00:17:56;;;;;;;14.30;7.10;;;;;;;8.14;62.77;100360.24;232205;204;139081;-61
2023/12/18 00:22:59;;;;;;;15.70;7.60;;;;;;;8.08;62.94;100361.67;232457;203;137536;-61
2023/12/18 00:28:04;;;;;;;12.00;6.80;;;;;;;8.05;62.83;100362.30;231627;204;152044;-61
2023/12/18 00:33:07;;;;;;;15.30;7.70;;;;;;;8.03;62.72;100353.69;232169;203;137995;-61
2023/12/18 00:38:10;;;;;;;13.30;7.00;;;;;;;8.00;62.89;100353.24;232184;201;137290;-61
2023/12/18 00:43:15;;;;;;;13.20;7.30;;;;;;;7.97;62.75;100361.27;232337;203;152080;-61
2023/12/18 00:48:18;;;;;;;14.30;6.90;;;;;;;7.95;62.86;100365.78;232209;204;137799;-60
2023/12/18 00:53:21;;;;;;;11.90;7.00;;;;;;;7.97;62.72;100359.34;231791;197;136850;-61
2023/12/18 00:58:24;;;;;;;13.80;6.60;;;;;;;7.99;62.55;100350.29;232376;200;152774;-61
2023/12/18 01:03:28;;;;;;;11.20;6.80;;;;;;;7.99;62.48;100345.52;232235;204;137678;-60
2023/12/18 01:08:32;;;;;;;12.60;6.50;;;;;;;7.98;62.31;100350.48;232357;204;137727;-61
2023/12/18 01:13:35;;;;;;;15.90;6.40;;;;;;;7.97;62.28;100352.82;232363;197;151501;-60
2023/12/18 01:18:38;;;;;;;12.60;6.80;;;;;;;7.96;62.21;100348.24;232243;203;140344;-61
2023/12/18 01:23:41;;;;;;;13.40;6.50;;;;;;;7.97;62.24;100340.27;232091;197;136738;-59
2023/12/18 01:28:45;;;;;;;10.00;5.40;;;;;;;7.96;62.06;100332.34;232090;204;152108;-61
2023/12/18 01:33:48;;;;;;;10.90;5.30;;;;;;;7.95;62.11;100324.77;232358;200;138031;-60
2023/12/18 01:38:51;;;;;;;9.00;5.30;;;;;;;7.96;62.04;100318.92;232233;204;137504;-62
2023/12/18 01:43:55;;;;;;;10.10;5.60;;;;;;;7.96;61.95;100305.49;232312;204;151373;-62
2023/12/18 01:48:58;;;;;;;12.10;6.30;;;;;;;7.94;61.92;100296.18;232185;203;137003;-63
2023/12/18 01:54:02;;;;;;;12.70;6.20;;;;;;;7.92;61.81;100286.36;232249;203;138926;-67
2023/12/18 01:59:09;;;;;;;10.90;6.10;;;;;;;7.87;61.96;100275.00;232079;204;157456;-63
2023/12/18 02:04:13;;;;;;;12.70;6.70;;;;;;;7.81;61.82;100269.17;232277;196;137527;-63
2023/12/18 02:09:16;;;;;;;14.00;7.20;;;;;;;7.74;62.03;100263.75;232328;203;137884;-62
2023/12/18 02:14:19;;;;;;;13.30;6.80;;;;;;;7.72;62.11;100271.59;231785;202;152201;-62
2023/12/18 02:19:29;;;;;;;10.60;6.20;;;;;;;7.69;62.04;100266.76;232258;204;136516;-63
2023/12/18 02:24:33;;;;;;;13.50;7.10;;;;;;;7.64;62.20;100264.06;231860;203;136545;-64
2023/12/18 02:29:37;;;;;;;11.10;6.30;;;;;;;7.65;62.12;100264.92;232358;204;152004;-64
2023/12/18 02:34:40;;;;;;;12.70;6.40;;;;;;;7.64;62.15;100265.12;231992;203;136779;-63
2023/12/18 02:39:44;;;;;;;10.20;6.10;;;;;;;7.64;62.24;100265.63;232066;201;136778;-63
2023/12/18 02:44:47;;;;;;;9.90;6.00;;;;;;;7.63;62.18;100267.46;232210;204;152041;-63
2023/12/18 02:49:50;;;;;;;13.60;6.10;;;;;;;7.58;62.10;100270.05;232207;204;139158;-63
2023/12/18 02:54:54;;;;;;;8.90;5.40;;;;;;;7.57;62.25;100266.02;231129;204;137551;-63
2023/12/18 02:59:57;;;;;;;8.10;5.80;;;;;;;7.58;62.28;100267.08;232319;203;153401;-61
2023/12/18 03:05:00;;;;;;;10.60;5.40;;;;;;;7.55;62.24;100253.55;232076;198;138046;-62
2023/12/18 03:10:04;;;;;;;10.00;5.70;;;;;;;7.54;62.27;100252.00;232232;196;137881;-63
2023/12/18 03:15:09;;;;;;;12.00;5.50;;;;;;;7.54;62.23;100248.80;231903;198;154278;-62
2023/12/18 03:20:12;;;;;;;12.60;6.20;;;;;;;7.51;62.14;100248.73;232340;197;136924;-62
2023/12/18 03:25:16;;;;;;;10.90;6.20;;;;;;;7.49;62.34;100247.73;232346;197;137822;-62
2023/12/18 03:30:19;;;;;;;10.60;6.00;;;;;;;7.48;62.21;100243.54;232263;204;151256;-62
2023/12/18 03:35:22;;;;;;;12.60;6.40;;;;;;;7.48;62.26;100238.77;231963;197;136741;-61
2023/12/18 03:40:26;;;;;;;95.60;66.70;;;;;;;7.47;62.26;100240.56;232317;200;137147;-65
2023/12/18 03:45:29;;;;;;;15.20;8.30;;;;;;;7.51;62.49;100238.48;232271;197;151079;-63
2023/12/18 03:50:32;;;;;;;25.80;16.90;;;;;;;7.49;62.24;100236.26;232185;202;136878;-64
2023/12/18 03:55:35;;;;;;;12.90;7.30;;;;;;;7.44;62.43;100239.07;231917;198;136791;-62
2023/12/18 04:00:39;;;;;;;10.00;6.00;;;;;;;7.46;62.30;100242.53;232262;204;153598;-61
2023/12/18 04:05:42;;;;;;;12.20;6.10;;;;;;;7.43;62.05;100242.44;232328;201;137865;-62
2023/12/18 04:10:45;;;;;;;11.40;5.90;;;;;;;7.43;62.05;100243.16;232121;203;137260;-63
2023/12/18 04:15:49;;;;;;;9.80;5.70;;;;;;;7.40;61.85;100231.93;232245;203;151869;-62
2023/12/18 04:20:52;;;;;;;14.20;8.40;;;;;;;7.42;62.44;100224.48;231851;199;136922;-62
2023/12/18 04:25:56;;;;;;;11.50;6.60;;;;;;;7.43;61.97;100224.95;232383;203;137149;-62
2023/12/18 04:30:59;;;;;;;9.90;6.40;;;;;;;7.39;61.62;100229.14;232257;197;151224;-62
2023/12/18 04:36:03;;;;;;;11.50;6.40;;;;;;;7.34;61.77;100233.18;232134;197;137599;-62
2023/12/18 04:41:06;;;;;;;10.90;6.10;;;;;;;7.31;61.70;100233.77;232193;195;136521;-63
2023/12/18 04:46:10;;;;;;;11.70;6.80;;;;;;;7.25;61.74;100234.30;232430;201;151315;-62
2023/12/18 04:51:13;;;;;;;11.00;6.30;;;;;;;7.19;61.93;100234.49;232352;204;137387;-64
2023/12/18 04:56:16;;;;;;;10.00;6.40;;;;;;;7.17;61.91;100232.98;232347;204;137131;-61
2023/12/18 05:01:19;;;;;;;111.80;71.40;;;;;;;7.12;62.11;100231.34;232311;203;152015;-64
2023/12/18 05:06:26;;;;;;;14.50;8.50;;;;;;;7.11;62.28;100239.30;232266;204;137111;-62
2023/12/18 05:11:29;;;;;;;13.20;7.40;;;;;;;7.09;62.04;100242.18;232309;203;136532;-61
2023/12/18 05:16:32;;;;;;;9.60;5.80;;;;;;;6.99;62.10;100250.59;232129;203;151520;-61
2023/12/18 05:21:35;;;;;;;10.60;6.30;;;;;;;6.96;62.21;100253.52;232219;203;136825;-63
2023/12/18 05:26:38;;;;;;;11.40;5.90;;;;;;;6.83;62.30;100252.24;232399;196;137646;-65
2023/12/18 05:31:42;;;;;;;8.50;4.90;;;;;;;6.83;62.50;100249.61;231583;198;151440;-63
2023/12/18 05:36:45;;;;;;;10.10;5.10;;;;;;;6.95;62.35;100253.01;232213;204;137242;-65
2023/12/18 05:41:48;;;;;;;10.60;5.20;;;;;;;7.03;61.95;100261.59;232389;204;136473;-62
2023/12/18 05:46:51;;;;;;;9.50;5.70;;;;;;;7.08;61.92;100254.56;232043;202;151423;-62
2023/12/18 05:51:55;;;;;;;11.90;5.80;;;;;;;7.04;62.01;100258.40;231964;204;136392;-63
2023/12/18 05:56:58;;;;;;;13.00;5.80;;;;;;;7.08;61.90;100259.33;232251;197;139779;-63
2023/12/18 06:02:01;;;;;;;10.20;5.40;;;;;;;7.10;61.76;100263.34;232425;203;152634;-63
2023/12/18 06:07:04;;;;;;;9.90;5.90;;;;;;;7.08;61.80;100265.70;232399;204;136592;-65
2023/12/18 06:12:08;;;;;;;10.00;5.30;;;;;;;7.08;61.87;100267.27;232358;197;136533;-62
2023/12/18 06:17:11;;;;;;;9.40;5.80;;;;;;;7.13;61.62;100269.42;232107;204;151610;-63
2023/12/18 06:22:14;;;;;;;10.10;6.20;;;;;;;7.17;61.33;100275.33;232254;197;136717;-62
2023/12/18 06:27:17;;;;;;;10.50;5.60;;;;;;;7.21;61.19;100279.80;232111;200;136925;-62
2023/12/18 06:32:22;;;;;;;11.40;5.40;;;;;;;7.24;60.91;100273.54;232213;197;153542;-63
2023/12/18 06:37:25;;;;;;;12.10;5.80;;;;;;;7.21;60.83;100271.88;232188;197;137295;-63
2023/12/18 06:42:31;;;;;;;13.40;6.00;;;;;;;7.19;60.75;100280.04;232282;197;137214;-62
2023/12/18 06:47:34;;;;;;;9.60;5.40;;;;;;;7.15;60.85;100274.50;232358;204;151723;-60
2023/12/18 06:52:38;;;;;;;10.80;5.80;;;;;;;7.16;60.71;100278.52;232310;203;136504;-61
2023/12/18 06:57:41;;;;;;;11.70;6.10;;;;;;;7.16;60.77;100270.77;232194;197;138613;-63
2023/12/18 07:02:45;;;;;;;10.50;5.90;;;;;;;7.16;60.69;100269.89;232058;197;152208;-58
2023/12/18 07:07:48;;;;;;;10.90;6.00;;;;;;;7.21;60.55;100273.64;231522;196;137337;-60
2023/12/18 07:12:51;;;;;;;20.40;11.60;;;;;;;7.25;60.59;100272.10;232170;197;136826;-60
2023/12/18 07:17:58;;;;;;;12.40;6.60;;;;;;;7.31;60.50;100261.50;232009;204;151268;-60
2023/12/18 07:23:02;;;;;;;12.40;6.30;;;;;;;7.36;60.43;100256.59;231715;203;137080;-61
2023/12/18 07:28:09;;;;;;;10.20;5.90;;;;;;;7.42;60.29;100261.90;232378;204;137473;-62
2023/12/18 07:33:12;;;;;;;8.90;5.10;;;;;;;7.46;60.38;100270.25;232120;203;151817;-63
2023/12/18 07:38:15;;;;;;;10.20;5.20;;;;;;;7.49;60.15;100270.70;232217;204;137313;-61
2023/12/18 07:43:18;;;;;;;10.90;6.30;;;;;;;7.52;59.82;100262.83;231667;204;137519;-61
2023/12/18 07:48:24;;;;;;;9.30;6.00;;;;;;;7.56;59.77;100257.05;231966;201;152333;-61
2023/12/18 07:53:28;;;;;;;12.30;6.50;;;;;;;7.58;59.82;100260.36;231781;197;137062;-59
2023/12/18 07:58:31;;;;;;;10.50;5.80;;;;;;;7.57;59.79;100254.91;232082;197;138008;-58
2023/12/18 08:03:34;;;;;;;9.90;6.00;;;;;;;7.59;59.74;100251.32;232036;197;151708;-59
2023/12/18 08:08:38;;;;;;;10.10;5.80;;;;;;;7.66;59.72;100249.17;231815;197;136945;-58
2023/12/18 08:13:42;;;;;;;14.30;6.30;;;;;;;7.73;59.59;100254.96;232239;197;136896;-59
2023/12/18 08:18:47;;;;;;;13.60;6.60;;;;;;;7.78;59.66;100255.14;232290;204;151108;-60
2023/12/18 08:23:50;;;;;;;11.00;5.30;;;;;;;7.85;59.59;100250.69;232163;197;137115;-59
2023/12/18 08:28:53;;;;;;;12.20;5.60;;;;;;;7.98;59.52;100247.64;231954;198;137449;-59
2023/12/18 08:33:56;;;;;;;11.50;4.90;;;;;;;8.14;59.54;100242.88;232304;197;152003;-58
2023/12/18 08:39:00;;;;;;;10.60;5.20;;;;;;;8.30;59.27;100239.89;231717;204;137705;-58
2023/12/18 08:44:03;;;;;;;10.00;5.20;;;;;;;8.42;58.84;100231.00;232141;197;138460;-60
2023/12/18 08:49:08;;;;;;;9.90;4.70;;;;;;;8.57;58.41;100221.48;231956;203;152079;-62
2023/12/18 08:54:11;;;;;;;10.10;4.80;;;;;;;8.70;58.25;100218.18;231759;204;138594;-59
2023/12/18 08:59:15;;;;;;;9.20;4.60;;;;;;;8.82;57.83;100219.02;232189;200;137325;-60
2023/12/18 09:04:18;;;;;;;10.00;4.70;;;;;;;8.96;57.56;100217.09;232218;200;151536;-59
2023/12/18 09:09:22;;;;;;;9.00;4.40;;;;;;;9.08;57.61;100224.24;231763;202;139627;-58
2023/12/18 09:14:25;;;;;;;9.30;4.50;;;;;;;9.20;57.20;100225.20;231511;204;137934;-60
2023/12/18 09:19:29;;;;;;;11.50;4.30;;;;;;;9.35;56.97;100221.13;231659;204;152002;-58
2023/12/18 09:24:33;;;;;;;13.30;4.80;;;;;;;9.52;57.16;100215.88;231499;200;137628;-60
2023/12/18 09:29:36;;;;;;;8.80;4.20;;;;;;;9.69;56.62;100207.58;232208;197;137322;-61
2023/12/18 09:34:40;;;;;;;9.20;4.10;;;;;;;9.87;56.33;100195.69;232032;204;151266;-60
2023/12/18 09:39:43;;;;;;;9.70;4.30;;;;;;;10.06;55.68;100181.27;232244;200;137663;-59
2023/12/18 09:44:47;;;;;;;8.30;3.90;;;;;;;10.28;55.51;100183.04;232323;204;137815;-60
2023/12/18 09:49:52;;;;;;;7.20;3.40;;;;;;;10.49;54.62;100174.15;232050;204;151487;-60
2023/12/18 09:54:56;;;;;;;6.50;2.90;;;;;;;10.66;54.33;100167.17;232241;204;137734;-59
2023/12/18 10:00:00;;;;;;;6.10;2.70;;;;;;;10.83;53.67;100163.75;231919;197;137571;-59
2023/12/18 10:05:15;;;;;;;7.60;2.90;;;;;;;11.02;52.99;100156.34;232209;204;152404;-59
2023/12/18 10:10:20;;;;;;;5.70;2.80;;;;;;;11.21;52.17;100153.15;232069;197;137028;-59
2023/12/18 10:15:23;;;;;;;4.60;2.30;;;;;;;11.38;51.58;100138.30;232339;204;136770;-58
2023/12/18 10:20:28;;;;;;;7.10;2.40;;;;;;;11.54;51.16;100131.82;231730;204;152325;-61
2023/12/18 10:25:34;;;;;;;10.30;2.60;;;;;;;11.71;50.43;100132.47;232191;200;136892;-56
2023/12/18 10:30:37;;;;;;;5.20;2.30;;;;;;;11.84;50.06;100132.52;232203;204;137957;-58
2023/12/18 10:35:41;;;;;;;5.60;2.70;;;;;;;11.94;49.51;100127.25;231335;200;151357;-54
2023/12/18 10:40:45;;;;;;;5.10;2.80;;;;;;;12.03;49.50;100118.42;232239;203;137843;-57
2023/12/18 10:45:50;;;;;;;5.70;2.90;;;;;;;12.04;49.50;100117.50;232371;203;138549;-57
2023/12/18 10:50:56;;;;;;;5.00;2.80;;;;;;;12.01;49.62;100119.96;232238;204;151774;-57
2023/12/18 10:56:03;;;;;;;6.70;3.20;;;;;;;12.03;49.44;100114.52;231669;204;136786;-59
2023/12/18 11:01:07;;;;;;;7.40;3.60;;;;;;;12.04;49.10;100090.96;231908;197;137923;-59
2023/12/18 11:06:11;;;;;;;6.40;2.80;;;;;;;12.02;48.96;100072.75;231861;204;153251;-59
2023/12/18 11:11:17;;;;;;;8.80;2.40;;;;;;;12.03;49.15;100066.16;231754;201;136678;-59
2023/12/18 11:16:50;;;;;;;110.90;67.70;;;;;;;12.04;49.30;100051.67;230944;203;137345;-57
2023/12/18 11:21:54;;;;;;;6.40;3.20;;;;;;;12.13;49.31;100042.51;232076;203;152314;-55
2023/12/18 11:26:57;;;;;;;6.30;2.80;;;;;;;12.17;49.15;100051.35;232230;200;136585;-58
2023/12/18 11:32:03;;;;;;;8.70;2.60;;;;;;;12.16;49.10;100060.30;231684;200;137319;-57
2023/12/18 11:37:07;;;;;;;10.80;2.60;;;;;;;12.17;48.82;100056.38;231701;203;152787;-58
2023/12/18 11:42:11;;;;;;;7.40;2.60;;;;;;;12.18;48.90;100053.83;231731;197;138711;-57
2023/12/18 11:47:14;;;;;;;6.50;2.50;;;;;;;12.21;49.19;100049.36;231460;204;137947;-57
2023/12/18 11:52:21;;;;;;;6.30;3.40;;;;;;;12.26;49.23;100053.20;231666;204;151541;-58
2023/12/18 11:57:24;;;;;;;7.00;2.90;;;;;;;12.34;49.25;100050.09;231342;197;138058;-57
2023/12/18 12:02:29;;;;;;;6.90;2.80;;;;;;;12.45;49.30;100048.45;231236;203;137787;-56
2023/12/18 12:07:34;;;;;;;7.00;3.00;;;;;;;12.55;48.97;100047.38;231806;204;153978;-55
2023/12/18 12:12:37;;;;;;;9.30;2.90;;;;;;;12.61;49.01;100050.81;231719;197;137119;-54
2023/12/18 12:17:40;;;;;;;5.10;3.00;;;;;;;12.66;48.74;100050.70;231844;204;137106;-56
2023/12/18 12:22:44;;;;;;;6.10;2.60;;;;;;;12.63;48.34;100046.60;231765;203;152206;-55
2023/12/18 12:27:47;;;;;;;4.50;2.80;;;;;;;12.60;48.68;100037.33;232302;204;137408;-57
2023/12/18 12:32:52;;;;;;;5.10;2.50;;;;;;;12.64;48.83;100033.40;232038;196;137336;-59
2023/12/18 12:37:56;;;;;;;5.60;3.10;;;;;;;12.72;48.92;100022.27;232153;204;152831;-56
2023/12/18 12:42:59;;;;;;;6.50;3.10;;;;;;;12.81;48.52;100029.06;231844;197;137775;-58
2023/12/18 12:48:07;;;;;;;9.80;3.00;;;;;;;12.91;48.79;100038.45;232217;199;138548;-59
2023/12/18 12:53:10;;;;;;;6.20;3.30;;;;;;;12.97;48.53;100048.25;232210;200;151248;-57
2023/12/18 12:58:14;;;;;;;7.60;3.30;;;;;;;12.96;48.48;100049.02;232004;204;137482;-58
2023/12/18 13:03:17;;;;;;;5.20;2.90;;;;;;;12.97;48.75;100034.39;231764;202;137070;-70
2023/12/18 13:08:21;;;;;;;7.20;3.50;;;;;;;12.95;48.62;100028.64;231784;204;151458;-62
2023/12/18 13:13:25;;;;;;;8.80;3.10;;;;;;;12.91;48.74;100036.69;232017;197;137824;-60
2023/12/18 13:18:32;;;;;;;7.50;2.90;;;;;;;12.91;48.76;100039.89;232134;204;138027;-60
2023/12/18 13:23:37;;;;;;;6.50;3.20;;;;;;;12.88;49.00;100034.70;231949;202;152117;-61
2023/12/18 13:28:41;;;;;;;8.80;3.10;;;;;;;12.82;48.60;100041.65;232082;201;137571;-59
2023/12/18 13:33:46;;;;;;;6.50;2.60;;;;;;;12.71;48.63;100042.92;232262;200;137947;-64
2023/12/18 13:38:50;;;;;;;6.40;2.50;;;;;;;12.70;48.64;100049.08;232068;200;151984;-60
2023/12/18 13:43:53;;;;;;;7.20;3.40;;;;;;;12.70;48.53;100050.30;232106;204;137477;-66
2023/12/18 13:48:57;;;;;;;5.20;3.00;;;;;;;12.73;48.58;100047.30;232202;203;138654;-65
2023/12/18 13:54:00;;;;;;;7.20;2.60;;;;;;;12.73;48.42;100055.30;232172;200;153578;-65
2023/12/18 13:59:04;;;;;;;12.20;3.10;;;;;;;12.69;48.42;100050.00;232228;200;139938;-64
2023/12/18 14:04:07;;;;;;;4.80;3.20;;;;;;;12.66;48.28;100049.27;232444;196;137409;-63
2023/12/18 14:09:10;;;;;;;8.30;2.80;;;;;;;12.63;48.63;100062.28;232127;197;152051;-60
2023/12/18 14:14:15;;;;;;;6.40;2.70;;;;;;;12.58;48.84;100074.80;232285;203;136929;-60
2023/12/18 14:19:18;;;;;;;6.20;2.90;;;;;;;12.51;48.86;100078.92;231337;204;137573;-62
2023/12/18 14:24:21;;;;;;;7.30;3.10;;;;;;;12.48;49.09;100085.15;231857;204;152355;-62
2023/12/18 14:29:25;;;;;;;8.40;3.30;;;;;;;12.41;49.12;100085.32;231676;203;138155;-59
2023/12/18 14:34:28;;;;;;;6.60;3.20;;;;;;;12.37;49.35;100081.65;232396;204;136675;-61
2023/12/18 14:39:31;;;;;;;6.70;2.90;;;;;;;12.33;49.41;100081.51;232239;204;152366;-60
2023/12/18 14:44:34;;;;;;;5.60;3.10;;;;;;;12.29;49.33;100069.55;232084;197;137369;-60
2023/12/18 14:49:38;;;;;;;6.20;3.10;;;;;;;12.24;49.38;100068.27;231867;200;138169;-63
2023/12/18 14:54:41;;;;;;;8.80;3.20;;;;;;;12.16;49.29;100059.98;232161;197;152023;-64
2023/12/18 14:59:44;;;;;;;9.00;5.00;;;;;;;12.07;49.07;100060.42;231827;204;137557;-59
2023/12/18 15:04:48;;;;;;;5.50;3.20;;;;;;;12.00;48.63;100050.82;232149;200;136813;-61
2023/12/18 15:09:51;;;;;;;7.30;2.70;;;;;;;11.90;48.18;100058.45;232356;197;151649;-61
2023/12/18 15:14:54;;;;;;;5.90;2.90;;;;;;;11.82;48.35;100073.08;232318;203;137601;-60
2023/12/18 15:19:58;;;;;;;4.70;3.20;;;;;;;11.74;48.26;100086.95;232092;197;137356;-61
2023/12/18 15:25:01;;;;;;;10.10;3.60;;;;;;;11.68;48.25;100079.98;232121;204;152268;-61
2023/12/18 15:30:06;;;;;;;7.60;3.50;;;;;;;11.63;48.17;100068.82;232328;198;138753;-63
2023/12/18 15:35:10;;;;;;;11.70;3.90;;;;;;;11.60;47.83;100060.06;232328;203;137230;-62
2023/12/18 15:40:14;;;;;;;7.50;3.40;;;;;;;11.58;47.92;100058.41;232402;204;151155;-60
2023/12/18 15:45:17;;;;;;;6.40;3.60;;;;;;;11.53;47.76;100061.71;231589;204;136938;-61
2023/12/18 15:50:21;;;;;;;6.80;3.10;;;;;;;11.53;47.75;100070.60;232134;201;138091;-62
2023/12/18 15:55:25;;;;;;;4.80;3.50;;;;;;;11.51;47.56;100063.20;232227;200;152573;-61
2023/12/18 16:00:28;;;;;;;9.80;3.60;;;;;;;11.47;47.65;100072.31;232201;202;137263;-62
2023/12/18 16:05:34;;;;;;;7.30;3.20;;;;;;;11.44;47.62;100073.32;232220;203;137727;-60
2023/12/18 16:10:38;;;;;;;9.00;3.80;;;;;;;11.43;47.59;100067.69;232137;196;151338;-61
2023/12/18 16:15:41;;;;;;;7.10;3.60;;;;;;;11.38;47.24;100075.58;232432;200;137251;-61
2023/12/18 16:20:44;;;;;;;9.80;3.60;;;;;;;11.33;47.29;100074.95;232342;204;136629;-61
2023/12/18 16:25:48;;;;;;;11.50;3.80;;;;;;;11.30;47.32;100078.27;232295;200;151814;-60
2023/12/18 16:30:51;;;;;;;6.00;3.30;;;;;;;11.30;47.16;100076.69;232171;197;138846;-65
2023/12/18 16:35:59;;;;;;;8.60;3.50;;;;;;;11.25;47.07;100073.55;232294;197;136901;-61
2023/12/18 16:41:03;;;;;;;7.60;4.10;;;;;;;11.22;46.89;100068.54;232346;203;151153;-62
2023/12/18 16:46:06;;;;;;;8.30;3.60;;;;;;;11.20;46.99;100067.55;231954;204;137408;-62
2023/12/18 16:51:09;;;;;;;7.40;4.40;;;;;;;11.20;46.82;100066.14;232118;203;137107;-61
2023/12/18 16:56:13;;;;;;;7.20;4.10;;;;;;;11.16;47.07;100062.08;231773;201;151105;-62
2023/12/18 17:01:16;;;;;;;8.50;4.40;;;;;;;11.14;47.13;100063.08;231945;197;138159;-62
2023/12/18 17:06:19;;;;;;;8.50;4.60;;;;;;;11.15;47.04;100052.05;232305;203;137571;-61
2023/12/18 17:11:22;;;;;;;10.10;5.00;;;;;;;11.13;47.12;100057.98;232059;203;152953;-60
2023/12/18 17:16:26;;;;;;;9.70;4.80;;;;;;;11.12;47.11;100047.73;232306;197;137106;-60
2023/12/18 17:21:29;;;;;;;8.60;4.90;;;;;;;11.08;47.16;100056.09;232246;197;138192;-59
2023/12/18 17:26:33;;;;;;;17.70;5.90;;;;;;;11.09;47.07;100053.15;232238;204;151510;-57
2023/12/18 17:31:36;;;;;;;10.60;5.10;;;;;;;11.09;47.01;100043.59;232110;200;137740;-61
2023/12/18 17:36:40;;;;;;;12.00;6.10;;;;;;;11.07;47.05;100031.44;232051;197;137277;-62
2023/12/18 17:41:43;;;;;;;10.60;5.90;;;;;;;11.05;46.85;100036.52;232144;197;151942;-60
2023/12/18 17:46:47;;;;;;;11.80;5.60;;;;;;;11.02;47.01;100041.78;232091;204;137612;-59
2023/12/18 17:51:50;;;;;;;9.40;5.30;;;;;;;10.99;47.11;100039.09;232375;203;137852;-57
2023/12/18 17:56:53;;;;;;;19.10;5.80;;;;;;;10.97;47.22;100033.88;232142;200;151647;-58
2023/12/18 18:01:57;;;;;;;12.40;6.00;;;;;;;10.96;47.16;100035.35;232243;200;136920;-55
2023/12/18 18:07:01;;;;;;;9.80;5.40;;;;;;;10.94;47.00;100032.77;232138;204;137249;-58
2023/12/18 18:12:08;;;;;;;10.00;5.30;;;;;;;10.94;46.95;100025.14;232119;204;152908;-58
2023/12/18 18:17:12;;;;;;;11.80;5.70;;;;;;;10.91;47.02;100023.52;231930;203;138082;-57
2023/12/18 18:22:15;;;;;;;9.50;5.10;;;;;;;10.88;47.06;100030.41;232286;200;138072;-58
2023/12/18 18:27:19;;;;;;;11.70;5.60;;;;;;;10.89;47.07;100027.16;232190;204;151360;-56
2023/12/18 18:32:23;;;;;;;10.30;5.20;;;;;;;10.92;47.03;100028.58;232229;197;136890;-57
2023/12/18 18:37:26;;;;;;;12.20;5.70;;;;;;;10.93;46.86;100026.40;232241;200;137735;-61
2023/12/18 18:42:30;;;;;;;10.10;5.70;;;;;;;10.95;46.92;100025.61;232220;203;151411;-57
2023/12/18 18:47:33;;;;;;;11.10;5.20;;;;;;;10.96;46.64;100029.66;232263;203;138376;-58
2023/12/18 18:52:36;;;;;;;14.70;8.10;;;;;;;10.98;47.22;100031.32;232240;203;138464;-53
2023/12/18 18:57:39;;;;;;;11.90;5.50;;;;;;;11.03;46.88;100031.62;232274;197;153541;-53
2023/12/18 19:02:52;;;;;;;12.00;5.50;;;;;;;11.01;46.79;100036.52;232152;202;138129;-54
2023/12/18 19:07:56;;;;;;;10.50;5.10;;;;;;;11.03;46.70;100030.21;232090;203;137758;-53
2023/12/18 19:12:59;;;;;;;13.70;5.40;;;;;;;11.01;46.75;100028.52;232313;196;151535;-55
2023/12/18 19:18:03;;;;;;;10.00;5.50;;;;;;;11.01;46.73;100022.34;232302;200;138425;-53
2023/12/18 19:23:06;;;;;;;8.80;5.40;;;;;;;11.01;46.70;100021.23;231712;199;137384;-51
2023/12/18 19:28:10;;;;;;;9.70;5.10;;;;;;;11.03;46.75;100017.06;232384;196;151837;-52
2023/12/18 19:33:15;;;;;;;10.30;5.20;;;;;;;11.02;46.68;100019.93;232254;199;137666;-54
2023/12/18 19:38:20;;;;;;;10.60;5.30;;;;;;;11.03;46.78;100014.39;232281;199;137869;-52
2023/12/18 19:43:23;;;;;;;12.20;6.10;;;;;;;11.03;46.86;100013.17;232294;203;151500;-53
2023/12/18 19:48:28;;;;;;;11.20;5.50;;;;;;;11.02;46.83;100002.36;232269;203;137895;-58
2023/12/18 19:53:32;;;;;;;10.30;5.50;;;;;;;11.03;46.87;99989.54;232330;199;137766;-60
2023/12/18 19:58:35;;;;;;;14.80;6.00;;;;;;;11.03;46.80;99977.64;232341;203;152311;-59
2023/12/18 20:03:38;;;;;;;11.80;6.10;;;;;;;11.03;46.92;99972.14;232458;196;136744;-59
2023/12/18 20:08:42;;;;;;;10.40;5.90;;;;;;;10.98;46.92;99970.59;232374;200;137329;-59
2023/12/18 20:13:47;;;;;;;234.50;169.20;;;;;;;10.92;47.23;99964.67;232305;199;151378;-58
2023/12/18 20:18:50;;;;;;;16.90;10.30;;;;;;;11.02;48.57;99950.88;232178;199;137561;-57
2023/12/18 20:23:54;;;;;;;17.70;7.70;;;;;;;11.04;47.32;99942.95;232221;200;137282;-64
2023/12/18 20:28:57;;;;;;;12.40;6.90;;;;;;;11.00;47.16;99944.61;231999;203;152231;-58
2023/12/18 20:34:01;;;;;;;13.30;6.20;;;;;;;10.93;47.23;99947.40;232544;199;137879;-59
2023/12/18 20:39:04;;;;;;;17.00;6.80;;;;;;;10.86;47.27;99945.95;232258;200;137475;-56
2023/12/18 20:44:08;;;;;;;14.50;7.40;;;;;;;10.79;47.58;99941.48;231853;203;151309;-57
2023/12/18 20:49:11;;;;;;;13.20;7.50;;;;;;;10.75;47.94;99931.57;232399;199;137369;-58
2023/12/18 20:54:15;;;;;;;13.90;7.90;;;;;;;10.70;47.89;99925.12;232383;200;139155;-60
2023/12/18 20:59:21;;;;;;;15.60;9.00;;;;;;;10.65;47.99;99927.30;231950;199;153318;-59
2023/12/18 21:04:24;;;;;;;18.60;9.60;;;;;;;10.60;48.12;99926.08;232486;199;137946;-58
2023/12/18 21:09:28;;;;;;;18.90;9.70;;;;;;;10.58;48.15;99928.86;232161;203;137070;-62
2023/12/18 21:14:32;;;;;;;21.40;11.00;;;;;;;10.61;50.27;99928.38;231345;203;151971;-58
2023/12/18 21:19:37;;;;;;;;;;;;;;;10.65;48.51;99924.42;231538;203;137815;-60
2023/12/18 21:24:41;;;;;;;16.30;9.50;;;;;;;10.60;48.32;99926.48;232167;196;136870;-61
2023/12/18 21:29:46;;;;;;;16.40;9.10;;;;;;;10.55;48.31;99916.23;232128;196;151596;-62
2023/12/18 21:34:49;;;;;;;17.30;8.60;;;;;;;10.58;48.14;99906.84;231766;199;137532;-59
2023/12/18 21:39:52;;;;;;;15.60;8.10;;;;;;;10.61;47.92;99902.48;232464;203;137776;-57
2023/12/18 21:44:57;;;;;;;14.20;7.80;;;;;;;10.62;47.82;99902.41;231897;195;152004;-56
2023/12/18 21:50:00;;;;;;;15.90;8.20;;;;;;;10.62;47.72;99900.78;232356;196;136985;-59
2023/12/18 21:55:04;;;;;;;16.10;8.50;;;;;;;10.63;47.49;99903.61;231975;203;138322;-59
2023/12/18 22:00:08;;;;;;;12.60;7.50;;;;;;;10.62;47.45;99903.27;232405;197;151821;-60
2023/12/18 22:05:14;;;;;;;19.00;9.00;;;;;;;10.64;47.50;99895.76;232235;203;137769;-55
2023/12/18 22:10:17;;;;;;;18.10;8.60;;;;;;;10.61;47.48;99894.27;231896;199;137114;-59
2023/12/18 22:15:21;;;;;;;15.70;8.80;;;;;;;10.57;47.54;99890.05;232247;203;151440;-60
2023/12/18 22:20:24;;;;;;;18.00;8.80;;;;;;;10.51;47.51;99880.23;232111;199;137038;-57
2023/12/18 22:25:27;;;;;;;18.50;9.50;;;;;;;10.44;47.64;99881.64;232133;196;137700;-57
2023/12/18 22:30:30;;;;;;;18.20;9.90;;;;;;;10.41;47.81;99875.40;231627;196;151712;-58
2023/12/18 22:35:34;;;;;;;18.30;9.10;;;;;;;10.38;47.84;99863.45;232303;200;137773;-60
2023/12/18 22:40:37;;;;;;;20.80;10.50;;;;;;;10.33;47.82;99866.19;232436;197;137835;-59
2023/12/18 22:45:40;;;;;;;20.10;10.00;;;;;;;10.30;47.93;99870.26;231553;203;151412;-58
2023/12/18 22:50:44;;;;;;;19.20;9.40;;;;;;;10.23;48.05;99865.23;231682;199;137856;-59
2023/12/18 22:55:47;;;;;;;16.70;9.30;;;;;;;10.19;48.04;99860.95;232313;201;137291;-59
2023/12/18 23:00:51;;;;;;;16.80;9.20;;;;;;;10.17;48.04;99859.44;232359;203;153620;-59
2023/12/18 23:05:54;;;;;;;20.00;10.00;;;;;;;10.16;48.11;99850.30;232287;196;137791;-60
2023/12/18 23:10:58;;;;;;;22.40;9.30;;;;;;;10.14;48.15;99848.62;232370;200;137997;-58
2023/12/18 23:16:01;;;;;;;20.60;10.50;;;;;;;10.07;48.14;99845.77;231544;199;200883;-60